AirNav   Everest Fuels
 
 503 users online  

MI20 White O'Morn Heliport
Chelsea, Michigan, USA

GOING TO CHELSEA?


FAA INFORMATION EFFECTIVE 21 MAY 2020

Location

FAA Identifier: MI20
Lat/Long: 42-15-09.5000N 084-00-26.8000W
42-15.158333N 084-00.446667W
42.2526389,-84.0074444
(estimated)
Elevation: 960 ft. / 293 m (estimated)
From city: 4 miles SE of CHELSEA, MI
Time zone: UTC -4 (UTC -5 during Standard Time)
Zip code: 48118

Heliport Operations

Heliport use: Private use. Permission required prior to landing
Activation date: 05/2006
Control tower: no
ARTCC: CLEVELAND CENTER
FSS: LANSING FLIGHT SERVICE STATION
Attendance: UNATNDD
Wind indicator: lighted
Segmented circle: no
Lights: DUSK-1715

Heliport Communications

WX ASOS at ARB (12 nm E): 134.55 (734-668-7173)

Nearby radio navigation aids

VOR radial/distance  VOR name  Freq  Var
SVMr246/20.6SALEM VORTAC114.3003W
CRLr300/27.4CARLETON VOR/DME115.7003W
DXOr281/28.6DETROIT VOR/DME113.4006W
LFDr076/35.6LITCHFIELD VOR/DME111.2005W

 
NDB name  Hdg/Dist  Freq  Var  ID
TECUMSEH344/14.223906WTCU - -.-. ..-
ADRIAN014/23.227806WADG .- -.. --.
GROSSE ILE290/39.141907WRYS .-. -.-- ...

Heliport Services

Runway Information

Helipad H1

Dimensions: 24 x 24 ft. / 7 x 7 m
Surface: asphalt
Runway edge lights: FLD
Operational restrictions: CIRCULAR HELIPAD.
Traffic pattern: leftleft

Heliport Ownership and Management from official FAA records

Ownership: Privately-owned
Owner: ROBERT C. JACKSON
14091 SCIO CHURCH RD
CHELSEA, MI 48118
Phone 734-475-2027
Manager: ROBERT C. JACKSON
14091 SCIO CHURCH RD
CHELSEA, MI 48118
Phone 734-475-2027

Heliport Operational Statistics

Aircraft based on the field: 1
Helicopters: 1
    

Additional Remarks

FOR CD CTC DETROIT APCH AT 800-499-8181.

Instrument Procedures

There are no published instrument procedures at MI20.

Some nearby airports with instrument procedures:

KARB - Ann Arbor Municipal Airport (12 nm E)
3NP - Napoleon Airport (12 nm SW)
KJXN - Jackson County Airport-Reynolds Field (20 nm W)
KYIP - Willow Run Airport (21 nm E)
KOZW - Livingston County Spencer J Hardy Airport (23 nm N)
 
Loc | Ops | Rwys | IFR | FBO | Links
Com | Nav | Svcs | Stats | Notes
Area around MI20 (White O'Morn Heliport)
 
Road maps at: MapQuest Bing Google
 
Aerial photo
No photo
 
Sectional chart

 
Airport distance calculator
Flying to White O'Morn Heliport? Find the distance to fly.

From to MI20

Sunrise and sunset
Times for 03-Jun-2020
 Local
(UTC-4)
 Zulu
(UTC)
Morning civil twilight05:2809:28
Sunrise06:0210:02
Sunset21:0701:07
Evening civil twilight21:4101:41

Current date and time
Zulu (UTC)  03-Jun-2020 10:58:37
Local (UTC-4)  03-Jun-2020 06:58:37
 
METAR
KARB 
12nm E 
734-668-7173
031053Z AUTO 33005KT 10SM CLR 21/17 A2977 RMK AO2 PRESRR SLP074 T02110167
KJXN 
20nm W 
030956Z AUTO 20010KT 10SM CLR 21/16 A2972 RMK AO2 PRESFR SLP055 T02060161
KYIP 
21nm E 
031053Z AUTO 30007KT 10SM FEW120 23/17 A2977 RMK AO2 PRESRR SLP070 T02330167
KOZW 
22nm N 
031035Z AUTO 26003KT 10SM CLR 19/18 A2975 RMK AO2 T01930180
KADG 
23nm S 
031053Z AUTO 25006KT 10SM CLR 22/17 A2977 RMK AO2 SLP075 T02170172 TSNO
TAF
KJXN 
20nm W 
030540Z 0306/0406 22007KT P6SM SKC FM030700 27011G20KT P6SM VCTS BKN040CB FM030900 28010KT P6SM VCSH BKN060 FM031200 33011KT P6SM OVC025 FM031800 27010KT P6SM BKN050
KYIP 
21nm E 
030808Z 0308/0406 30013KT P6SM SCT045 OVC100 FM031000 25008KT P6SM SCT060 OVC150 FM031300 28012KT P6SM SCT040 BKN100 FM032100 30012KT P6SM SCT045
NOTAMs
Click for the latest NOTAMs
NOTAMs are issued by the DoD/FAA and will open in a separate window not controlled by AirNav.

 

 
 

Would you like to see your business listed on this page?

 If your business provides an interesting product or service to pilots, flight crews, aircraft, or users of the White O'Morn Heliport, you should consider listing it here.  To start the listing process, click on the button below
 
Add a business
 

Other Pages about White O'Morn Heliport

Update a link
 
Copyright © AirNav, LLC. All rights reserved. Privacy Policy  Contact